Time;durP1;ratioP1;P1;durP2;ratioP2;P2;SDS_P1;SDS_P2;PMS_P1;PMS_P2;Temp;Humidity;BMP_temperature;BMP_pressure;BME280_temperature;BME280_humidity;BME280_pressure;Samples;Min_cycle;Max_cycle;Signal;HPM_P1;HPM_P2
2022/09/19 00:00:33;;;;;;;;;;;8.70;99.90;;;;;;5048750;28;20024;-82
2022/09/19 00:02:59;;;;;;;;;;;8.70;99.90;;;;;;5045037;28;19955;-83
2022/09/19 00:05:24;;;;;;;;;;;8.70;99.90;;;;;;5039819;28;20349;-80
2022/09/19 00:07:50;;;;;;;;;;;8.70;99.90;;;;;;5040904;28;19913;-81
2022/09/19 00:10:15;;;;;;;;;;;8.70;99.90;;;;;;5049138;28;19917;-81
2022/09/19 00:12:41;;;;;;;;;;;8.70;99.90;;;;;;5041745;28;20549;-82
2022/09/19 00:15:07;;;;;;;;;;;8.60;99.90;;;;;;5060361;28;19920;-81
2022/09/19 00:17:33;;;;;;;;;;;8.60;99.90;;;;;;5048868;28;19975;-81
2022/09/19 00:19:58;;;;;;;;;;;8.60;99.90;;;;;;5038698;28;19908;-81
2022/09/19 00:22:24;;;;;;;;;;;8.50;99.90;;;;;;5043607;28;20407;-82
2022/09/19 00:24:49;;;;;;;;;;;8.40;99.90;;;;;;5049044;28;19913;-81
2022/09/19 00:27:18;;;;;;;;;;;8.40;99.90;;;;;;5036806;28;20264;-81
2022/09/19 00:29:43;;;;;;;;;;;8.30;99.90;;;;;;5050749;28;20348;-82
2022/09/19 00:32:13;;;;;;;;;;;8.30;99.90;;;;;;5050023;28;20002;-82
2022/09/19 00:34:43;;;;;;;;;;;8.20;99.90;;;;;;5046732;28;20380;-81
2022/09/19 00:37:09;;;;;;;;;;;8.10;99.90;;;;;;5048127;28;20019;-81
2022/09/19 00:39:34;;;;;;;;;;;8.10;99.90;;;;;;5045529;28;19920;-81
2022/09/19 00:42:00;;;;;;;;;;;8.10;99.90;;;;;;5050669;28;19921;-81
2022/09/19 00:44:25;;;;;;;;;;;8.00;99.90;;;;;;5048590;28;19913;-81
2022/09/19 00:46:56;;;;;;;;;;;8.00;99.90;;;;;;5050396;28;19916;-82
2022/09/19 00:49:22;;;;;;;;;;;8.00;99.90;;;;;;5041801;28;19909;-81
2022/09/19 00:51:53;;;;;;;;;;;8.00;99.90;;;;;;5043059;28;19992;-81
2022/09/19 00:54:23;;;;;;;;;;;8.00;99.90;;;;;;5042021;28;19909;-82
2022/09/19 00:56:50;;;;;;;;;;;8.00;99.90;;;;;;5043722;28;19904;-81
2022/09/19 00:59:16;;;;;;;;;;;7.90;99.90;;;;;;5043341;28;19912;-81
2022/09/19 01:01:42;;;;;;;;;;;8.00;99.90;;;;;;5050418;28;19916;-82
2022/09/19 01:04:14;;;;;;;;;;;8.00;99.90;;;;;;5048704;28;20419;-81
2022/09/19 01:06:48;;;;;;;;;;;8.00;99.90;;;;;;5045344;28;19923;-82
2022/09/19 01:09:23;;;;;;;;;;;8.00;99.90;;;;;;5048095;28;19913;-82
2022/09/19 01:11:58;;;;;;;;;;;8.00;99.90;;;;;;5044142;28;19932;-82
2022/09/19 01:14:43;;;;;;;;;;;8.00;99.90;;;;;;5046162;28;20010;-82
2022/09/19 01:17:16;;;;;;;;;;;8.00;99.90;;;;;;5072020;28;19917;-81
2022/09/19 01:19:59;;;;;;;;;;;8.00;99.90;;;;;;5058098;28;19924;-81
2022/09/19 01:22:25;;;;;;;;;;;8.00;99.90;;;;;;5037283;28;19958;-81
2022/09/19 01:25:08;;;;;;;;;;;8.00;99.90;;;;;;5043062;28;19917;-81
2022/09/19 01:27:40;;;;;;;;;;;8.00;99.90;;;;;;5045521;28;20000;-82
2022/09/19 01:30:10;;;;;;;;;;;7.90;99.90;;;;;;5048007;28;19913;-82
2022/09/19 01:32:44;;;;;;;;;;;7.90;99.90;;;;;;5047677;28;19912;-83
2022/09/19 01:35:11;;;;;;;;;;;7.90;99.90;;;;;;5046442;28;19924;-82
2022/09/19 01:37:40;;;;;;;;;;;7.90;99.90;;;;;;5040542;28;19959;-82
2022/09/19 01:40:09;;;;;;;;;;;7.80;99.90;;;;;;5046663;28;19913;-82
2022/09/19 01:42:35;;;;;;;;;;;7.80;99.90;;;;;;5050172;28;19924;-81
2022/09/19 01:45:00;;;;;;;;;;;7.80;99.90;;;;;;5023905;28;19913;-81
2022/09/19 01:47:42;;;;;;;;;;;7.80;99.90;;;;;;5050052;28;20394;-81
2022/09/19 01:50:14;;;;;;;;;;;7.80;99.90;;;;;;5050822;28;19962;-81
2022/09/19 01:52:53;;;;;;;;;;;7.90;99.90;;;;;;5048343;28;19908;-81
2022/09/19 01:55:30;;;;;;;;;;;7.90;99.90;;;;;;5045021;28;19909;-81
2022/09/19 01:57:58;;;;;;;;;;;7.90;99.90;;;;;;5042890;28;19978;-81
2022/09/19 02:00:24;;;;;;;;;;;7.90;99.90;;;;;;5041755;28;19924;-82
2022/09/19 02:03:05;;;;;;;;;;;7.90;99.90;;;;;;5050167;28;19948;-82
2022/09/19 02:05:36;;;;;;;;;;;7.90;99.90;;;;;;5034994;28;20375;-81
2022/09/19 02:08:09;;;;;;;;;;;7.80;99.90;;;;;;5046833;28;19971;-81
2022/09/19 02:10:39;;;;;;;;;;;7.80;99.90;;;;;;5050525;28;19913;-81
2022/09/19 02:13:08;;;;;;;;;;;7.80;99.90;;;;;;5050127;28;19935;-82
2022/09/19 02:15:34;;;;;;;;;;;7.80;99.90;;;;;;5040164;28;20019;-81
2022/09/19 02:18:24;;;;;;;;;;;7.80;99.90;;;;;;5049958;28;20011;-81
2022/09/19 02:20:51;;;;;;;;;;;7.70;99.90;;;;;;5031720;28;19913;-81
2022/09/19 02:23:20;;;;;;;;;;;7.60;99.90;;;;;;5039967;28;19924;-81
2022/09/19 02:25:47;;;;;;;;;;;7.70;99.90;;;;;;5047692;28;20043;-81
2022/09/19 02:28:14;;;;;;;;;;;7.70;99.90;;;;;;5047068;28;19912;-81
2022/09/19 02:30:41;;;;;;;;;;;7.70;99.90;;;;;;5049600;28;19971;-81
2022/09/19 02:33:07;;;;;;;;;;;7.70;99.90;;;;;;5039570;28;19917;-81
2022/09/19 02:35:38;;;;;;;;;;;7.70;99.90;;;;;;5047195;28;19989;-81
2022/09/19 02:38:10;;;;;;;;;;;7.70;99.90;;;;;;5047032;28;19979;-81
2022/09/19 02:40:36;;;;;;;;;;;7.60;99.90;;;;;;5048350;28;19909;-82
2022/09/19 02:43:06;;;;;;;;;;;7.60;99.90;;;;;;5048096;28;19923;-82
2022/09/19 02:45:37;;;;;;;;;;;7.60;99.90;;;;;;5049776;28;19917;-81
2022/09/19 02:48:21;;;;;;;;;;;7.50;99.90;;;;;;5045901;28;20426;-82
2022/09/19 02:50:58;;;;;;;;;;;7.40;99.90;;;;;;5044431;28;19915;-82
2022/09/19 02:53:26;;;;;;;;;;;7.30;99.90;;;;;;5047612;28;20342;-81
2022/09/19 02:55:56;;;;;;;;;;;7.30;99.90;;;;;;5044261;28;19998;-81
2022/09/19 02:58:22;;;;;;;;;;;7.10;99.90;;;;;;5044329;28;19965;-81
2022/09/19 03:00:51;;;;;;;;;;;7.00;99.90;;;;;;5047121;28;19917;-82
2022/09/19 03:06:05;;;;;;;;;;;6.80;99.90;;;;;;5048026;28;19915;-81
2022/09/19 03:08:35;;;;;;;;;;;6.70;99.90;;;;;;5043890;28;19955;-82
2022/09/19 03:11:06;;;;;;;;;;;6.60;99.90;;;;;;5049741;28;20235;-81
2022/09/19 03:13:33;;;;;;;;;;;6.50;99.90;;;;;;5038683;28;19951;-82
2022/09/19 03:16:19;;;;;;;;;;;6.50;99.90;;;;;;5045397;28;19908;-82
2022/09/19 03:18:46;;;;;;;;;;;6.40;99.90;;;;;;5040371;28;20003;-82
2022/09/19 03:21:13;;;;;;;;;;;6.30;99.90;;;;;;5049150;28;19913;-81
2022/09/19 03:23:40;;;;;;;;;;;6.30;99.90;;;;;;5040750;28;19931;-81
2022/09/19 03:26:08;;;;;;;;;;;6.20;99.90;;;;;;5040855;28;19913;-82
2022/09/19 03:28:34;;;;;;;;;;;6.10;99.90;;;;;;5047520;28;20384;-81
2022/09/19 03:31:00;;;;;;;;;;;6.10;99.90;;;;;;5047179;28;19922;-82
2022/09/19 03:33:27;;;;;;;;;;;6.10;99.90;;;;;;5049315;28;19913;-81
2022/09/19 03:35:56;;;;;;;;;;;6.00;99.90;;;;;;5048049;28;19913;-82
2022/09/19 03:38:22;;;;;;;;;;;5.90;99.90;;;;;;5044416;28;19924;-82
2022/09/19 03:40:47;;;;;;;;;;;5.90;99.90;;;;;;5048773;28;19913;-82
2022/09/19 03:43:13;;;;;;;;;;;5.80;99.90;;;;;;5037233;28;19925;-82
2022/09/19 03:45:38;;;;;;;;;;;5.80;99.90;;;;;;5042691;28;19999;-82
2022/09/19 03:48:04;;;;;;;;;;;5.80;99.90;;;;;;5037007;28;20307;-84
2022/09/19 03:50:29;;;;;;;;;;;5.80;99.90;;;;;;5035944;28;19913;-82
2022/09/19 03:52:55;;;;;;;;;;;5.80;99.90;;;;;;5048939;28;19978;-83
2022/09/19 03:55:20;;;;;;;;;;;5.80;99.90;;;;;;5021170;28;19924;-82
2022/09/19 03:57:46;;;;;;;;;;;5.80;99.90;;;;;;5020069;28;19928;-80
2022/09/19 04:00:12;;;;;;;;;;;5.80;99.90;;;;;;5034787;28;19967;-82
2022/09/19 04:02:37;;;;;;;;;;;5.70;99.90;;;;;;5048038;28;19913;-83
2022/09/19 04:05:03;;;;;;;;;;;5.70;99.90;;;;;;5045125;28;19952;-83
2022/09/19 04:07:29;;;;;;;;;;;5.70;99.90;;;;;;5045353;28;20352;-82
2022/09/19 04:09:55;;;;;;;;;;;5.60;99.90;;;;;;5052158;28;19924;-82
2022/09/19 04:12:21;;;;;;;;;;;5.60;99.90;;;;;;5065119;28;19920;-81
2022/09/19 04:14:47;;;;;;;;;;;5.60;99.90;;;;;;5075760;28;19917;-84
2022/09/19 04:17:13;;;;;;;;;;;5.60;99.90;;;;;;5046924;28;19967;-81
2022/09/19 04:19:40;;;;;;;;;;;5.60;99.90;;;;;;5051600;28;19924;-82
2022/09/19 04:22:05;;;;;;;;;;;5.50;99.90;;;;;;5050543;28;19916;-82
2022/09/19 04:24:31;;;;;;;;;;;5.50;99.90;;;;;;5048699;28;19939;-81
2022/09/19 04:26:59;;;;;;;;;;;5.40;99.90;;;;;;5048098;28;20312;-82
2022/09/19 04:29:27;;;;;;;;;;;5.40;99.90;;;;;;5052950;28;20003;-82
2022/09/19 04:31:54;;;;;;;;;;;5.40;99.90;;;;;;5042680;28;20431;-81
2022/09/19 04:34:19;;;;;;;;;;;5.30;99.90;;;;;;5031019;28;19956;-81
2022/09/19 04:36:48;;;;;;;;;;;5.40;99.90;;;;;;5027773;28;19952;-81
2022/09/19 04:39:14;;;;;;;;;;;5.40;99.90;;;;;;5030469;28;20138;-78
2022/09/19 04:41:40;;;;;;;;;;;5.30;99.90;;;;;;5040683;28;19921;-81
2022/09/19 04:44:09;;;;;;;;;;;5.30;99.90;;;;;;5028625;28;19917;-81
2022/09/19 04:46:35;;;;;;;;;;;5.30;99.90;;;;;;5022242;28;19917;-81
2022/09/19 04:49:00;;;;;;;;;;;5.40;99.90;;;;;;5020982;28;19959;-81
2022/09/19 04:51:27;;;;;;;;;;;5.40;99.90;;;;;;5028299;28;19967;-80
2022/09/19 04:53:53;;;;;;;;;;;5.30;99.90;;;;;;5025494;28;19909;-80
2022/09/19 04:56:20;;;;;;;;;;;5.30;99.90;;;;;;5041581;28;20323;-82
2022/09/19 04:58:46;;;;;;;;;;;5.30;99.90;;;;;;5027789;28;19920;-81
2022/09/19 05:01:14;;;;;;;;;;;5.30;99.90;;;;;;5030762;28;20380;-80
2022/09/19 05:03:43;;;;;;;;;;;5.30;99.90;;;;;;5044906;28;19913;-81
2022/09/19 05:06:12;;;;;;;;;;;5.30;99.90;;;;;;5034396;28;19909;-80
2022/09/19 05:08:37;;;;;;;;;;;5.40;99.90;;;;;;5031718;28;19909;-82
2022/09/19 05:11:05;;;;;;;;;;;5.40;99.90;;;;;;5047737;28;19908;-82
2022/09/19 05:13:32;;;;;;;;;;;5.30;99.90;;;;;;5039848;28;19917;-82
2022/09/19 05:15:58;;;;;;;;;;;5.40;99.90;;;;;;5037759;28;19944;-82
2022/09/19 05:18:24;;;;;;;;;;;5.30;99.90;;;;;;5041932;28;19916;-82
2022/09/19 05:20:50;;;;;;;;;;;5.30;99.90;;;;;;5041394;28;20450;-82
2022/09/19 05:23:15;;;;;;;;;;;5.30;99.90;;;;;;5037079;28;19909;-82
2022/09/19 05:25:41;;;;;;;;;;;5.30;99.90;;;;;;5039551;28;19971;-83
2022/09/19 05:28:07;;;;;;;;;;;5.40;99.90;;;;;;5041243;28;19963;-83
2022/09/19 05:30:34;;;;;;;;;;;5.40;99.90;;;;;;5046728;28;20372;-82
2022/09/19 05:32:59;;;;;;;;;;;5.40;99.90;;;;;;5048005;28;20338;-81
2022/09/19 05:35:25;;;;;;;;;;;5.50;99.90;;;;;;5034772;28;19913;-89
2022/09/19 05:37:51;;;;;;;;;;;5.60;99.90;;;;;;5036183;28;20023;-84
2022/09/19 05:40:18;;;;;;;;;;;5.70;99.90;;;;;;5038055;28;20027;-85
2022/09/19 05:42:46;;;;;;;;;;;5.70;99.90;;;;;;5040908;28;19927;-85
2022/09/19 05:45:12;;;;;;;;;;;5.70;99.90;;;;;;5040441;28;19919;-85
2022/09/19 05:47:39;;;;;;;;;;;5.80;99.90;;;;;;5048827;28;19912;-85
2022/09/19 05:50:07;;;;;;;;;;;5.80;99.90;;;;;;5048306;28;20354;-86
2022/09/19 05:55:17;;;;;;;;;;;5.90;99.90;;;;;;5048386;28;20299;-85
2022/09/19 05:57:48;;;;;;;;;;;5.90;99.90;;;;;;5037062;28;20011;-85
2022/09/19 06:00:14;;;;;;;;;;;5.90;99.90;;;;;;5050677;28;19999;-85
2022/09/19 06:02:39;;;;;;;;;;;5.90;99.90;;;;;;5021057;28;20013;-84
2022/09/19 06:05:06;;;;;;;;;;;5.90;99.90;;;;;;5018087;28;20285;-87
2022/09/19 06:07:32;;;;;;;;;;;6.00;99.90;;;;;;5020289;28;19910;-89
2022/09/19 06:09:58;;;;;;;;;;;5.90;99.90;;;;;;5037591;28;19920;-77
2022/09/19 06:12:23;;;;;;;;;;;5.90;99.90;;;;;;5014108;28;19920;-77
2022/09/19 06:14:49;;;;;;;;;;;6.00;99.90;;;;;;5020479;28;20024;-79
2022/09/19 06:17:16;;;;;;;;;;;6.10;99.90;;;;;;5033866;28;19917;-77
2022/09/19 06:19:41;;;;;;;;;;;6.10;99.90;;;;;;5015335;28;20415;-77
2022/09/19 06:22:07;;;;;;;;;;;6.20;99.90;;;;;;5032513;28;19921;-78
2022/09/19 06:24:33;;;;;;;;;;;6.30;99.90;;;;;;5020096;28;19913;-76
2022/09/19 06:26:58;;;;;;;;;;;6.40;99.90;;;;;;5015024;28;20335;-76
2022/09/19 06:29:24;;;;;;;;;;;6.60;99.90;;;;;;5015225;28;19928;-76
2022/09/19 06:31:49;;;;;;;;;;;6.60;99.90;;;;;;5022905;28;19943;-76
2022/09/19 06:34:15;;;;;;;;;;;6.80;99.90;;;;;;5026342;28;20237;-76
2022/09/19 06:36:44;;;;;;;;;;;7.00;99.90;;;;;;5025890;28;19944;-77
2022/09/19 06:39:09;;;;;;;;;;;7.10;99.90;;;;;;5027944;28;19917;-77
2022/09/19 06:41:35;;;;;;;;;;;7.20;99.90;;;;;;5026726;28;20423;-77
2022/09/19 06:44:02;;;;;;;;;;;7.20;99.90;;;;;;5026066;28;19913;-76
2022/09/19 06:46:27;;;;;;;;;;;7.30;99.90;;;;;;5024708;28;19924;-76
2022/09/19 06:48:53;;;;;;;;;;;7.40;99.90;;;;;;5027601;28;19913;-77
2022/09/19 06:51:19;;;;;;;;;;;7.50;99.90;;;;;;5025648;28;19909;-76
2022/09/19 06:53:47;;;;;;;;;;;7.50;99.90;;;;;;5027826;28;19917;-76
2022/09/19 06:56:13;;;;;;;;;;;7.60;99.90;;;;;;5028629;28;19913;-76
2022/09/19 06:58:39;;;;;;;;;;;7.60;99.90;;;;;;5025483;28;19987;-76
2022/09/19 07:01:04;;;;;;;;;;;7.50;99.90;;;;;;5022308;28;19957;-76
2022/09/19 07:03:30;;;;;;;;;;;7.70;99.90;;;;;;5027111;28;19912;-76
2022/09/19 07:05:56;;;;;;;;;;;7.80;99.90;;;;;;5027856;28;20365;-76
2022/09/19 07:08:22;;;;;;;;;;;7.80;99.90;;;;;;5032594;28;20011;-75
2022/09/19 07:10:47;;;;;;;;;;;7.70;99.90;;;;;;5040574;28;19972;-75
2022/09/19 07:13:16;;;;;;;;;;;7.80;99.90;;;;;;5029204;28;20025;-75
2022/09/19 07:15:42;;;;;;;;;;;7.80;99.90;;;;;;5022517;28;19909;-75
2022/09/19 07:18:10;;;;;;;;;;;7.70;99.90;;;;;;5016354;28;19912;-75
2022/09/19 07:20:36;;;;;;;;;;;7.90;99.90;;;;;;5027960;28;19905;-75
2022/09/19 07:23:06;;;;;;;;;;;7.80;99.90;;;;;;5026888;28;20408;-76
2022/09/19 07:25:32;;;;;;;;;;;7.80;99.90;;;;;;5016780;28;20054;-76
2022/09/19 07:28:01;;;;;;;;;;;7.90;99.90;;;;;;5029333;28;20008;-76
2022/09/19 07:30:27;;;;;;;;;;;7.90;99.90;;;;;;5026596;28;20024;-76
2022/09/19 07:32:57;;;;;;;;;;;8.00;99.90;;;;;;5048890;28;20356;-76
2022/09/19 07:35:29;;;;;;;;;;;8.20;99.90;;;;;;5052991;28;19920;-76
2022/09/19 07:37:55;;;;;;;;;;;8.30;99.90;;;;;;5045145;28;19924;-76
2022/09/19 07:40:21;;;;;;;;;;;8.50;99.90;;;;;;5032745;28;19917;-76
2022/09/19 07:42:47;;;;;;;;;;;8.50;99.90;;;;;;5050431;28;19921;-76
2022/09/19 07:45:13;;;;;;;;;;;8.60;99.90;;;;;;5046810;28;20383;-76
2022/09/19 07:47:41;;;;;;;;;;;8.70;99.90;;;;;;5051612;28;19935;-76
2022/09/19 07:50:07;;;;;;;;;;;8.80;99.90;;;;;;5051407;28;20335;-75
2022/09/19 07:52:32;;;;;;;;;;;8.80;99.90;;;;;;5049287;28;19919;-76
2022/09/19 07:54:58;;;;;;;;;;;8.80;99.90;;;;;;5053221;28;19921;-76
2022/09/19 07:57:24;;;;;;;;;;;8.90;99.90;;;;;;5053200;28;19931;-76
2022/09/19 07:59:49;;;;;;;;;;;8.90;99.90;;;;;;5049000;28;19928;-76
2022/09/19 08:02:15;;;;;;;;;;;9.10;99.90;;;;;;5029675;28;20230;-76
2022/09/19 08:04:40;;;;;;;;;;;9.10;99.90;;;;;;5051277;28;20007;-76
2022/09/19 08:07:06;;;;;;;;;;;9.30;99.90;;;;;;5050915;28;19908;-76
2022/09/19 08:09:32;;;;;;;;;;;9.20;99.90;;;;;;5052480;28;20299;-79
2022/09/19 08:12:02;;;;;;;;;;;9.30;99.90;;;;;;5052674;28;19916;-80
2022/09/19 08:14:27;;;;;;;;;;;9.40;99.90;;;;;;5047469;28;19959;-77
2022/09/19 08:16:53;;;;;;;;;;;9.10;99.90;;;;;;5041195;28;20586;-77
2022/09/19 08:19:18;;;;;;;;;;;9.10;99.90;;;;;;5045752;28;19920;-77
2022/09/19 08:21:44;;;;;;;;;;;9.30;99.90;;;;;;5039565;28;19916;-77
2022/09/19 08:24:09;;;;;;;;;;;9.30;99.90;;;;;;5038380;28;20573;-78
2022/09/19 08:26:35;;;;;;;;;;;9.60;99.90;;;;;;5041271;28;20003;-77
2022/09/19 08:29:00;;;;;;;;;;;9.50;99.90;;;;;;5043563;28;19952;-78
2022/09/19 08:31:26;;;;;;;;;;;9.60;99.90;;;;;;5035714;28;19917;-78
2022/09/19 08:33:51;;;;;;;;;;;9.50;99.90;;;;;;5037885;28;19928;-78
2022/09/19 08:36:17;;;;;;;;;;;9.30;99.90;;;;;;5040849;28;19919;-77
2022/09/19 08:38:43;;;;;;;;;;;9.40;99.90;;;;;;5051537;28;20353;-77
2022/09/19 08:41:14;;;;;;;;;;;9.60;99.90;;;;;;5049367;28;19939;-77
2022/09/19 08:43:50;;;;;;;;;;;9.80;99.90;;;;;;5041058;28;19952;-77
2022/09/19 08:46:19;;;;;;;;;;;9.80;99.90;;;;;;5048262;28;19966;-77
2022/09/19 08:48:45;;;;;;;;;;;10.10;99.90;;;;;;5051650;28;20438;-77
2022/09/19 08:51:23;;;;;;;;;;;10.30;99.90;;;;;;5049459;28;19912;-77
2022/09/19 08:53:51;;;;;;;;;;;10.40;99.90;;;;;;5045177;28;20273;-77
2022/09/19 08:56:18;;;;;;;;;;;10.60;99.90;;;;;;5046268;28;19975;-83
2022/09/19 08:59:03;;;;;;;;;;;10.70;99.90;;;;;;5041076;28;19921;-77
2022/09/19 09:01:34;;;;;;;;;;;10.70;99.90;;;;;;5040526;28;19916;-78
2022/09/19 09:04:07;;;;;;;;;;;10.70;99.90;;;;;;5040480;28;19944;-77
2022/09/19 09:06:47;;;;;;;;;;;10.70;99.90;;;;;;5043783;28;19913;-77
2022/09/19 09:09:18;;;;;;;;;;;10.90;99.90;;;;;;5047046;28;19908;-77
2022/09/19 09:12:03;;;;;;;;;;;11.30;99.90;;;;;;5045435;28;19917;-77
2022/09/19 09:14:48;;;;;;;;;;;11.40;99.90;;;;;;5039511;28;19978;-77
2022/09/19 09:17:13;;;;;;;;;;;11.50;99.90;;;;;;5037374;28;19919;-78
2022/09/19 09:19:57;;;;;;;;;;;11.60;99.90;;;;;;5047637;28;19944;-78
2022/09/19 09:22:24;;;;;;;;;;;11.30;99.90;;;;;;5035337;28;19919;-78
2022/09/19 09:24:57;;;;;;;;;;;11.70;99.90;;;;;;5037519;28;19913;-77
2022/09/19 09:27:25;;;;;;;;;;;12.00;99.90;;;;;;5044842;28;20062;-77
2022/09/19 09:29:52;;;;;;;;;;;12.00;99.90;;;;;;5046817;28;19999;-77
2022/09/19 09:32:21;;;;;;;;;;;11.60;99.90;;;;;;5048199;28;20066;-77
2022/09/19 09:34:48;;;;;;;;;;;11.70;99.90;;;;;;5048000;28;20364;-77
2022/09/19 09:37:19;;;;;;;;;;;11.70;98.80;;;;;;5046425;28;19920;-77
2022/09/19 09:40:00;;;;;;;;;;;11.60;98.80;;;;;;5047646;28;20340;-78
2022/09/19 09:42:30;;;;;;;;;;;11.60;99.90;;;;;;5042377;28;20330;-77
2022/09/19 09:44:56;;;;;;;;;;;11.80;97.60;;;;;;5042219;28;19912;-77
2022/09/19 09:47:36;;;;;;;;;;;11.60;99.90;;;;;;5033170;28;19912;-77
2022/09/19 09:50:25;;;;;;;;;;;11.90;97.80;;;;;;5042892;28;19912;-77
2022/09/19 09:53:10;;;;;;;;;;;12.40;96.00;;;;;;5050496;28;19913;-78
2022/09/19 09:58:40;;;;;;;;;;;12.60;90.40;;;;;;5044893;28;19938;-77
2022/09/19 10:04:29;;;;;;;;;;;12.30;93.40;;;;;;5042772;28;19959;-78
2022/09/19 10:07:09;;;;;;;;;;;12.20;93.90;;;;;;5037883;28;19936;-77
2022/09/19 10:09:37;;;;;;;;;;;11.90;94.30;;;;;;5028692;28;19913;-77
2022/09/19 10:12:07;;;;;;;;;;;11.90;95.50;;;;;;5043368;28;20027;-77
2022/09/19 10:14:35;;;;;;;;;;;12.00;95.30;;;;;;5037741;28;20015;-80
2022/09/19 10:17:04;;;;;;;;;;;12.10;98.60;;;;;;5032727;28;19913;-78
2022/09/19 10:19:36;;;;;;;;;;;12.10;97.20;;;;;;5040033;28;19920;-79
2022/09/19 10:22:02;;;;;;;;;;;12.40;98.30;;;;;;5044869;28;19909;-79
2022/09/19 10:24:43;;;;;;;;;;;12.50;95.30;;;;;;5042756;28;19921;-78
2022/09/19 10:27:23;;;;;;;;;;;12.70;92.00;;;;;;5044371;28;19920;-78
2022/09/19 10:29:56;;;;;;;;;;;12.70;92.50;;;;;;5043433;28;19919;-78
2022/09/19 10:32:24;;;;;;;;;;;13.30;90.60;;;;;;5045296;28;20353;-77
2022/09/19 10:34:50;;;;;;;;;;;13.10;92.90;;;;;;5038664;28;19966;-77
2022/09/19 10:37:18;;;;;;;;;;;13.40;88.70;;;;;;5047045;28;19913;-76
2022/09/19 10:39:46;;;;;;;;;;;13.20;85.40;;;;;;5049338;28;20012;-78
2022/09/19 10:42:30;;;;;;;;;;;13.00;87.90;;;;;;5041082;28;19996;-78
2022/09/19 10:44:58;;;;;;;;;;;13.00;88.30;;;;;;5038371;28;19917;-78
2022/09/19 10:47:25;;;;;;;;;;;13.50;88.10;;;;;;5030908;28;20027;-77
2022/09/19 10:49:51;;;;;;;;;;;14.60;87.90;;;;;;5047189;28;19920;-77
2022/09/19 10:52:30;;;;;;;;;;;15.40;81.50;;;;;;5043210;28;19921;-78
2022/09/19 10:55:00;;;;;;;;;;;15.80;74.00;;;;;;5045840;28;20606;-77
2022/09/19 10:57:41;;;;;;;;;;;15.60;70.10;;;;;;5044592;28;19920;-78
2022/09/19 11:00:33;;;;;;;;;;;15.40;77.20;;;;;;5040323;28;19956;-78
2022/09/19 11:03:01;;;;;;;;;;;14.50;75.10;;;;;;5041522;28;20666;-78
2022/09/19 11:05:30;;;;;;;;;;;14.10;77.90;;;;;;5043947;28;19962;-77
2022/09/19 11:07:59;;;;;;;;;;;13.70;77.70;;;;;;5039655;28;19955;-77
2022/09/19 11:10:38;;;;;;;;;;;13.50;80.60;;;;;;5045590;28;19964;-78
2022/09/19 11:13:09;;;;;;;;;;;13.80;81.90;;;;;;5040600;28;19952;-77
2022/09/19 11:15:40;;;;;;;;;;;13.40;82.00;;;;;;5043080;28;20025;-78
2022/09/19 11:18:11;;;;;;;;;;;13.50;80.40;;;;;;5036686;28;19962;-78
2022/09/19 11:20:48;;;;;;;;;;;13.80;78.20;;;;;;5045512;28;19915;-77
2022/09/19 11:23:29;;;;;;;;;;;13.90;78.90;;;;;;5038803;28;19909;-78
2022/09/19 11:26:13;;;;;;;;;;;14.90;76.80;;;;;;5039084;28;20005;-84
2022/09/19 11:28:57;;;;;;;;;;;15.70;75.00;;;;;;5044296;28;19916;-84
2022/09/19 11:31:35;;;;;;;;;;;15.70;73.90;;;;;;5044556;28;20012;-84
2022/09/19 11:34:11;;;;;;;;;;;15.90;69.60;;;;;;5041991;28;20834;-84
2022/09/19 11:36:36;;;;;;;;;;;15.60;73.20;;;;;;5017395;28;19913;-84
2022/09/19 11:39:09;;;;;;;;;;;15.70;73.70;;;;;;5048759;28;19916;-84
2022/09/19 11:41:43;;;;;;;;;;;15.20;74.40;;;;;;5038485;28;20032;-84
2022/09/19 11:44:27;;;;;;;;;;;15.10;72.80;;;;;;5046813;28;19931;-84
2022/09/19 11:47:12;;;;;;;;;;;15.10;73.10;;;;;;5037098;28;19909;-78
2022/09/19 11:49:51;;;;;;;;;;;15.30;74.50;;;;;;5045757;28;20373;-83
2022/09/19 11:52:26;;;;;;;;;;;17.00;64.00;;;;;;5042940;28;19920;-83
2022/09/19 11:54:55;;;;;;;;;;;18.90;60.30;;;;;;5042564;28;19912;-77
2022/09/19 11:57:41;;;;;;;;;;;19.00;56.10;;;;;;5039463;28;19906;-77
2022/09/19 12:00:13;;;;;;;;;;;17.90;51.40;;;;;;5044524;28;19994;-78
2022/09/19 12:02:45;;;;;;;;;;;16.30;57.10;;;;;;5047150;28;19917;-79
2022/09/19 12:05:19;;;;;;;;;;;16.10;59.60;;;;;;5034397;28;20338;-78
2022/09/19 12:08:08;;;;;;;;;;;16.40;63.60;;;;;;5040257;28;19970;-77
2022/09/19 12:10:38;;;;;;;;;;;16.50;66.40;;;;;;5033898;28;19909;-77
2022/09/19 12:13:21;;;;;;;;;;;15.80;61.30;;;;;;5039272;28;19917;-76
2022/09/19 12:15:49;;;;;;;;;;;16.70;60.50;;;;;;5040991;28;19912;-77
2022/09/19 12:18:21;;;;;;;;;;;18.30;54.90;;;;;;5039413;28;19921;-77
2022/09/19 12:20:53;;;;;;;;;;;17.20;51.90;;;;;;5046028;28;19917;-77
2022/09/19 12:26:09;;;;;;;;;;;18.40;58.80;;;;;;5044969;28;20002;-77
2022/09/19 12:28:44;;;;;;;;;;;17.40;56.80;;;;;;5046067;28;19927;-77
2022/09/19 12:31:11;;;;;;;;;;;16.80;57.80;;;;;;5035013;28;19916;-77
2022/09/19 12:33:40;;;;;;;;;;;16.50;60.20;;;;;;5046639;28;19912;-77
2022/09/19 12:36:14;;;;;;;;;;;17.50;60.40;;;;;;5046087;28;20002;-77
2022/09/19 12:38:51;;;;;;;;;;;17.70;58.80;;;;;;5054900;28;19950;-77
2022/09/19 12:41:35;;;;;;;;;;;17.50;57.60;;;;;;5047596;28;19985;-77
2022/09/19 12:44:18;;;;;;;;;;;16.70;67.10;;;;;;5047673;28;19935;-78
2022/09/19 12:46:43;;;;;;;;;;;16.20;67.60;;;;;;5042793;28;19921;-78
2022/09/19 12:49:17;;;;;;;;;;;15.70;72.00;;;;;;5049712;28;19977;-77
2022/09/19 12:51:42;;;;;;;;;;;15.90;73.20;;;;;;5040938;28;20412;-78
2022/09/19 12:54:13;;;;;;;;;;;15.80;68.40;;;;;;5045907;28;19909;-77
2022/09/19 12:56:42;;;;;;;;;;;16.00;66.40;;;;;;5042770;28;19936;-78
2022/09/19 12:59:14;;;;;;;;;;;16.80;64.20;;;;;;5044499;28;20024;-77
2022/09/19 13:01:48;;;;;;;;;;;18.60;61.30;;;;;;5051111;28;19960;-79
2022/09/19 13:04:25;;;;;;;;;;;19.60;55.20;;;;;;5055795;28;20016;-75
2022/09/19 13:06:52;;;;;;;;;;;18.60;57.20;;;;;;5039527;28;19909;-77
2022/09/19 13:09:24;;;;;;;;;;;17.00;61.90;;;;;;5042379;28;20353;-75
2022/09/19 13:11:54;;;;;;;;;;;16.90;64.90;;;;;;5039167;28;20384;-77
2022/09/19 13:14:23;;;;;;;;;;;17.20;65.70;;;;;;5043658;28;20368;-76
2022/09/19 13:25:16;;;;;;;;;;;15.10;79.20;;;;;;5046717;28;19920;-77
2022/09/19 13:27:45;;;;;;;;;;;14.50;77.70;;;;;;5047267;28;20534;-77
2022/09/19 13:30:36;;;;;;;;;;;14.00;78.60;;;;;;5050283;28;19956;-76
2022/09/19 13:33:02;;;;;;;;;;;14.00;83.90;;;;;;5025908;28;19920;-76
2022/09/19 13:35:46;;;;;;;;;;;14.30;82.30;;;;;;5047050;28;20331;-76
2022/09/19 13:38:36;;;;;;;;;;;13.80;83.50;;;;;;5041839;28;19909;-76
2022/09/19 13:41:04;;;;;;;;;;;13.50;90.00;;;;;;5034493;28;19909;-76
2022/09/19 13:43:41;;;;;;;;;;;11.50;99.90;;;;;;5046009;28;19920;-80
2022/09/19 13:46:19;;;;;;;;;;;10.70;99.90;;;;;;5047945;28;19952;-78
2022/09/19 13:48:49;;;;;;;;;;;10.40;99.90;;;;;;5046401;28;19917;-78
2022/09/19 13:51:33;;;;;;;;;;;10.30;99.90;;;;;;5049870;28;20422;-79
2022/09/19 13:54:37;;;;;;;;;;;10.20;99.90;;;;;;5045187;28;19916;-78
2022/09/19 13:57:05;;;;;;;;;;;10.10;99.90;;;;;;4986604;28;19920;-77
2022/09/19 13:59:34;;;;;;;;;;;10.10;99.90;;;;;;5037855;28;19916;-78
2022/09/19 14:01:59;;;;;;;;;;;10.10;99.90;;;;;;5034568;28;19966;-77
2022/09/19 14:07:33;;;;;;;;;;;10.70;99.90;;;;;;5039565;28;19913;-79
2022/09/19 14:10:00;;;;;;;;;;;11.00;99.90;;;;;;5046764;28;20007;-80
2022/09/19 14:12:39;;;;;;;;;;;11.10;99.90;;;;;;5043210;28;19919;-77
2022/09/19 14:15:24;;;;;;;;;;;11.40;99.90;;;;;;5038935;28;20396;-76
2022/09/19 14:18:08;;;;;;;;;;;11.50;99.90;;;;;;5042655;28;19913;-77
2022/09/19 14:20:53;;;;;;;;;;;11.80;99.90;;;;;;5045383;28;20319;-76
2022/09/19 14:23:21;;;;;;;;;;;12.50;99.90;;;;;;5045485;28;19916;-77
2022/09/19 14:26:00;;;;;;;;;;;14.40;99.90;;;;;;5041869;28;20261;-77
2022/09/19 14:28:32;;;;;;;;;;;15.90;99.90;;;;;;5047028;28;19917;-76
2022/09/19 14:31:16;;;;;;;;;;;16.10;99.90;;;;;;5042832;28;19916;-77
2022/09/19 14:33:41;;;;;;;;;;;16.80;99.90;;;;;;5044879;28;20009;-77
2022/09/19 14:36:20;;;;;;;;;;;19.10;99.90;;;;;;5041805;28;19940;-77
2022/09/19 14:38:51;;;;;;;;;;;20.10;95.60;;;;;;5043040;28;20364;-77
2022/09/19 14:41:21;;;;;;;;;;;21.60;99.90;;;;;;5041300;28;19913;-77
2022/09/19 14:43:49;;;;;;;;;;;19.00;99.90;;;;;;5039696;28;19912;-77
2022/09/19 14:46:24;;;;;;;;;;;17.10;99.90;;;;;;5035826;28;19939;-77
2022/09/19 14:49:08;;;;;;;;;;;17.10;99.00;;;;;;5045104;28;19920;-77
2022/09/19 14:51:37;;;;;;;;;;;16.80;91.00;;;;;;5043712;28;19965;-76
2022/09/19 14:54:06;;;;;;;;;;;15.90;86.40;;;;;;5042576;28;20354;-76
2022/09/19 14:56:31;;;;;;;;;;;15.10;91.20;;;;;;5036708;28;19916;-77
2022/09/19 14:59:00;;;;;;;;;;;16.60;90.70;;;;;;5037110;28;19917;-77
2022/09/19 15:01:35;;;;;;;;;;;16.80;84.80;;;;;;5039732;28;19921;-77
2022/09/19 15:04:08;;;;;;;;;;;15.00;90.50;;;;;;5038623;28;19944;-76
2022/09/19 15:06:35;;;;;;;;;;;14.20;94.70;;;;;;5040871;28;20403;-78